Williams Center, Oklahoma
Current Conditions -  °F | °C
As of 11:53 PM on Friday 24 Oct 2014 (Local Time) from KTUL Reporting Station
Clear Clear  
Wind Chill: 69°   Ceiling: Unl
Heat Index: 69°   Visibility: 10mi
Dew Point: 62°   Wind: 8mph
Humidity: 78%   Direction: 180°S
Pressure: 30.04"   Gusts: NA
Location:  36.1544°N, 95.9905°W
Report Text: KTUL 250453Z 18007KT 10SM CLR 21/17 A3004 RMK AO2 SLP165 T02060167
Loading
Personal Weather Stations






























Interactive Weather Map
Tropical Storm Tracking
New forecast layout! Learn more

10-Day Weather Forecast

Advertisements
Track Severe Weather on mobile